Time;durP1;ratioP1;P1;durP2;ratioP2;P2;SDS_P1;SDS_P2;PMS_P1;PMS_P2;Temp;Humidity;BMP_temperature;BMP_pressure;BME280_temperature;BME280_humidity;BME280_pressure;Samples;Min_cycle;Max_cycle;Signal;HPM_P1;HPM_P2
2021/05/12 00:00:32;;;;;;;23.53;15.20;;;9.00;99.90;;;;;;5057556;28;20204;-63
2021/05/12 00:03:00;;;;;;;22.33;15.87;;;9.00;99.90;;;;;;5059070;28;20193;-63
2021/05/12 00:05:28;;;;;;;23.77;15.90;;;9.00;99.90;;;;;;5060142;28;20287;-63
2021/05/12 00:07:56;;;;;;;24.57;15.80;;;8.90;99.90;;;;;;5056364;28;20187;-63
2021/05/12 00:10:25;;;;;;;21.37;15.10;;;8.90;99.90;;;;;;5061257;28;20184;-63
2021/05/12 00:12:53;;;;;;;22.43;14.63;;;8.80;99.90;;;;;;5059845;28;20204;-63
2021/05/12 00:15:23;;;;;;;22.47;14.90;;;8.80;99.90;;;;;;5058055;28;20196;-62
2021/05/12 00:17:53;;;;;;;23.37;16.13;;;8.80;99.90;;;;;;5057437;28;20197;-63
2021/05/12 00:20:24;;;;;;;24.70;17.00;;;8.80;99.90;;;;;;5060722;28;20192;-63
2021/05/12 00:22:56;;;;;;;27.10;17.80;;;8.90;99.90;;;;;;5059082;28;20195;-62
2021/05/12 00:25:24;;;;;;;27.03;17.73;;;9.00;99.90;;;;;;5056533;28;20199;-63
2021/05/12 00:27:52;;;;;;;28.77;17.97;;;9.00;99.90;;;;;;5059646;28;20215;-63
2021/05/12 00:30:23;;;;;;;31.07;18.13;;;9.10;99.90;;;;;;5058636;28;20204;-63
2021/05/12 00:32:52;;;;;;;33.77;18.23;;;9.00;99.90;;;;;;5060460;28;20678;-62
2021/05/12 00:35:20;;;;;;;32.73;19.77;;;9.10;99.90;;;;;;5059821;28;20184;-63
2021/05/12 00:37:48;;;;;;;35.43;19.97;;;9.30;99.90;;;;;;5055515;28;20238;-63
2021/05/12 00:40:18;;;;;;;37.07;20.67;;;9.30;99.90;;;;;;5057287;28;20254;-63
2021/05/12 00:42:47;;;;;;;43.57;20.83;;;9.40;99.90;;;;;;5058887;28;20254;-63
2021/05/12 00:45:18;;;;;;;41.07;20.73;;;9.50;99.90;;;;;;5055916;28;20256;-62
2021/05/12 00:47:49;;;;;;;39.53;21.37;;;9.50;99.90;;;;;;5056287;28;20315;-63
2021/05/12 00:50:19;;;;;;;40.93;21.33;;;9.50;99.90;;;;;;5058528;28;20227;-63
2021/05/12 00:52:46;;;;;;;37.40;21.37;;;9.50;99.90;;;;;;5058719;28;20573;-63
2021/05/12 00:55:15;;;;;;;41.37;22.00;;;9.50;99.90;;;;;;5059418;28;20259;-62
2021/05/12 00:57:43;;;;;;;37.23;20.87;;;9.50;99.90;;;;;;5057773;28;20261;-63
2021/05/12 01:00:14;;;;;;;35.27;20.50;;;9.50;99.90;;;;;;5060441;28;20286;-62
2021/05/12 01:02:42;;;;;;;37.47;20.40;;;9.40;99.90;;;;;;5057140;28;20200;-63
2021/05/12 01:05:19;;;;;;;35.83;20.47;;;9.40;99.90;;;;;;5058427;28;20269;-62
2021/05/12 01:07:46;;;;;;;35.43;19.47;;;9.30;99.90;;;;;;5057616;28;20334;-62
2021/05/12 01:10:14;;;;;;;38.30;21.30;;;9.30;99.90;;;;;;5056468;28;20232;-63
2021/05/12 01:12:42;;;;;;;32.27;20.23;;;9.30;99.90;;;;;;5058158;28;20663;-62
2021/05/12 01:15:13;;;;;;;32.47;19.77;;;9.30;99.90;;;;;;5056263;28;20185;-63
2021/05/12 01:17:41;;;;;;;39.17;20.67;;;9.20;99.90;;;;;;5056291;28;20913;-63
2021/05/12 01:20:11;;;;;;;37.40;21.10;;;9.10;99.90;;;;;;5059446;28;20249;-63
2021/05/12 01:22:40;;;;;;;35.33;20.30;;;9.10;99.90;;;;;;5058056;28;20690;-63
2021/05/12 01:25:09;;;;;;;35.57;21.00;;;9.10;99.90;;;;;;5055595;28;20220;-62
2021/05/12 01:27:38;;;;;;;31.20;19.93;;;9.10;99.90;;;;;;5059799;28;20271;-62
2021/05/12 01:30:08;;;;;;;33.20;20.93;;;9.00;99.90;;;;;;5055072;28;20233;-62
2021/05/12 01:32:37;;;;;;;36.50;21.47;;;9.00;99.90;;;;;;5053752;28;20205;-63
2021/05/12 01:35:08;;;;;;;32.37;20.43;;;9.00;99.90;;;;;;5058216;28;20231;-62
2021/05/12 01:37:36;;;;;;;36.53;20.97;;;9.00;99.90;;;;;;5058327;28;20232;-62
2021/05/12 01:40:06;;;;;;;40.20;22.07;;;8.90;99.90;;;;;;5056942;28;20196;-62
2021/05/12 01:42:34;;;;;;;36.80;20.93;;;8.90;99.90;;;;;;5055853;28;20223;-63
2021/05/12 01:45:07;;;;;;;38.27;20.97;;;8.90;99.90;;;;;;5057391;28;20196;-62
2021/05/12 01:47:35;;;;;;;36.33;21.47;;;8.90;99.90;;;;;;5058610;28;21114;-63
2021/05/12 01:50:06;;;;;;;35.30;21.97;;;8.90;99.90;;;;;;5055681;28;20248;-62
2021/05/12 01:52:37;;;;;;;34.93;21.50;;;8.90;99.90;;;;;;5057763;28;20184;-63
2021/05/12 01:55:09;;;;;;;41.07;21.97;;;8.90;99.90;;;;;;5053977;28;20278;-62
2021/05/12 01:57:39;;;;;;;39.03;22.33;;;8.80;99.90;;;;;;5055496;28;20295;-62
2021/05/12 02:00:25;;;;;;;35.50;21.07;;;8.80;99.90;;;;;;5056890;28;20189;-62
2021/05/12 02:02:53;;;;;;;30.67;20.33;;;8.70;99.90;;;;;;5055780;28;21020;-62
2021/05/12 02:05:21;;;;;;;37.60;20.20;;;8.70;99.90;;;;;;5055746;28;20254;-62
2021/05/12 02:07:52;;;;;;;32.30;20.60;;;8.60;99.90;;;;;;5057012;28;20204;-62
2021/05/12 02:10:21;;;;;;;36.37;21.90;;;8.60;99.90;;;;;;5054284;28;20249;-62
2021/05/12 02:12:49;;;;;;;39.13;21.67;;;8.60;99.90;;;;;;5057397;28;20656;-62
2021/05/12 02:15:17;;;;;;;37.87;22.07;;;8.60;99.90;;;;;;5057357;28;20592;-63
2021/05/12 02:17:45;;;;;;;32.97;21.23;;;8.60;99.90;;;;;;5055786;28;20727;-62
2021/05/12 02:20:17;;;;;;;32.57;19.87;;;8.50;99.90;;;;;;5055394;28;20196;-63
2021/05/12 02:22:45;;;;;;;36.37;20.63;;;8.50;99.90;;;;;;5076661;28;20193;-63
2021/05/12 02:25:13;;;;;;;33.20;20.20;;;8.50;99.90;;;;;;5057362;28;20215;-62
2021/05/12 02:27:42;;;;;;;38.57;21.40;;;8.50;99.90;;;;;;5055113;28;20238;-62
2021/05/12 02:30:11;;;;;;;34.03;20.77;;;8.60;99.90;;;;;;5057413;28;20686;-62
2021/05/12 02:32:39;;;;;;;33.83;20.33;;;8.60;99.90;;;;;;5055964;28;20192;-62
2021/05/12 02:35:10;;;;;;;36.73;19.73;;;8.60;99.90;;;;;;5056647;28;20185;-62
2021/05/12 02:37:38;;;;;;;29.83;18.57;;;8.50;99.90;;;;;;5059594;28;20771;-62
2021/05/12 02:40:08;;;;;;;35.53;19.60;;;8.50;99.90;;;;;;5058233;28;20772;-62
2021/05/12 02:42:36;;;;;;;34.63;17.90;;;8.40;99.90;;;;;;5060531;28;20198;-62
2021/05/12 02:45:08;;;;;;;31.07;18.03;;;8.30;99.90;;;;;;5060228;28;20195;-62
2021/05/12 02:47:36;;;;;;;33.40;17.87;;;8.20;99.90;;;;;;5060457;28;20242;-62
2021/05/12 02:50:06;;;;;;;29.53;16.70;;;8.20;99.90;;;;;;5059905;28;20193;-62
2021/05/12 02:52:34;;;;;;;26.23;17.20;;;8.10;99.90;;;;;;5062663;28;20188;-62
2021/05/12 02:55:01;;;;;;;27.07;16.80;;;8.10;99.90;;;;;;5057126;28;20192;-62
2021/05/12 02:57:30;;;;;;;24.90;15.60;;;8.10;99.90;;;;;;5060886;28;20805;-62
2021/05/12 02:59:57;;;;;;;25.13;15.73;;;8.10;99.90;;;;;;5059920;28;20200;-62
2021/05/12 03:02:26;;;;;;;28.20;15.03;;;8.00;99.90;;;;;;5058908;28;20278;-62
2021/05/12 03:04:54;;;;;;;24.23;14.27;;;8.00;99.90;;;;;;5059595;28;20224;-62
2021/05/12 03:07:22;;;;;;;26.80;14.10;;;7.90;99.90;;;;;;5059807;28;20205;-62
2021/05/12 03:09:50;;;;;;;22.60;14.10;;;7.90;99.90;;;;;;5054476;28;20199;-62
2021/05/12 03:12:18;;;;;;;23.97;13.10;;;7.90;99.90;;;;;;5059515;28;20197;-62
2021/05/12 03:14:47;;;;;;;23.47;13.83;;;7.90;99.90;;;;;;5059643;28;20197;-62
2021/05/12 03:17:15;;;;;;;22.67;13.43;;;7.80;99.90;;;;;;5060157;28;20242;-62
2021/05/12 03:19:44;;;;;;;20.60;13.10;;;7.80;99.90;;;;;;5061462;28;20245;-62
2021/05/12 03:22:11;;;;;;;23.73;12.93;;;7.70;99.90;;;;;;5059584;28;20603;-63
2021/05/12 03:24:39;;;;;;;26.67;13.63;;;7.70;99.90;;;;;;5061382;28;20204;-63
2021/05/12 03:27:07;;;;;;;25.27;14.03;;;7.80;99.90;;;;;;5057271;28;20216;-62
2021/05/12 03:29:35;;;;;;;25.47;13.27;;;7.70;99.90;;;;;;5052999;28;20234;-62
2021/05/12 03:32:03;;;;;;;24.47;13.87;;;7.70;99.90;;;;;;5059554;28;20196;-63
2021/05/12 03:34:32;;;;;;;26.03;13.90;;;7.70;99.90;;;;;;5059151;28;20868;-62
2021/05/12 03:37:01;;;;;;;25.13;13.30;;;7.70;99.90;;;;;;5059978;28;20181;-62
2021/05/12 03:39:29;;;;;;;21.90;12.83;;;7.70;99.90;;;;;;5055869;28;20703;-62
2021/05/12 03:41:58;;;;;;;27.93;14.17;;;7.70;99.90;;;;;;5059065;28;20629;-62
2021/05/12 03:44:25;;;;;;;21.20;12.67;;;7.70;99.90;;;;;;5075423;28;20283;-62
2021/05/12 03:46:53;;;;;;;27.50;13.97;;;7.70;99.90;;;;;;5039191;28;20254;-62
2021/05/12 03:49:22;;;;;;;21.47;13.00;;;7.70;99.90;;;;;;5057288;28;20196;-62
2021/05/12 03:51:49;;;;;;;21.93;12.67;;;7.70;99.90;;;;;;5057228;28;20204;-62
2021/05/12 03:54:21;;;;;;;19.60;12.70;;;7.60;99.90;;;;;;5055491;28;20200;-62
2021/05/12 03:56:49;;;;;;;23.17;12.53;;;7.60;99.90;;;;;;5059622;28;20200;-62
2021/05/12 03:59:18;;;;;;;21.10;12.10;;;7.60;99.90;;;;;;5058774;28;20188;-62
2021/05/12 04:01:46;;;;;;;21.50;13.10;;;7.60;99.90;;;;;;5042127;28;20281;-62
2021/05/12 04:04:16;;;;;;;20.37;13.60;;;7.60;99.90;;;;;;5058216;28;20224;-62
2021/05/12 04:06:44;;;;;;;34.47;14.03;;;7.60;99.90;;;;;;5056902;28;20698;-62
2021/05/12 04:09:13;;;;;;;24.30;12.70;;;7.70;99.90;;;;;;5060078;28;20188;-62
2021/05/12 04:11:44;;;;;;;20.90;12.73;;;7.80;99.90;;;;;;5056771;28;20902;-62
2021/05/12 04:14:12;;;;;;;20.17;12.17;;;7.80;99.90;;;;;;5058475;28;20203;-62
2021/05/12 04:16:40;;;;;;;20.50;12.90;;;7.80;99.90;;;;;;5058490;28;20261;-62
2021/05/12 04:19:08;;;;;;;24.20;11.77;;;7.90;99.90;;;;;;5059001;28;20679;-62
2021/05/12 04:21:36;;;;;;;17.77;10.93;;;7.90;99.90;;;;;;5057577;28;20610;-62
2021/05/12 04:24:05;;;;;;;22.93;12.10;;;7.90;99.90;;;;;;5056978;28;20224;-62
2021/05/12 04:26:33;;;;;;;23.43;12.63;;;7.90;99.90;;;;;;5059745;28;20199;-62
2021/05/12 04:29:02;;;;;;;22.43;11.37;;;7.90;99.90;;;;;;5057316;28;20259;-64
2021/05/12 04:31:30;;;;;;;23.93;11.17;;;8.00;99.90;;;;;;5058154;28;20200;-62
2021/05/12 04:34:00;;;;;;;23.87;11.17;;;8.00;99.90;;;;;;5057403;28;20337;-62
2021/05/12 04:36:27;;;;;;;21.07;11.37;;;8.00;99.90;;;;;;5057922;28;20257;-61
2021/05/12 04:38:55;;;;;;;21.57;10.67;;;8.00;99.90;;;;;;5058692;28;20311;-61
2021/05/12 04:41:23;;;;;;;27.20;13.47;;;8.00;99.90;;;;;;5056207;28;20525;-64
2021/05/12 04:43:54;;;;;;;23.23;11.93;;;8.00;99.90;;;;;;5054886;28;20252;-61
2021/05/12 04:46:23;;;;;;;20.17;9.70;;;8.00;99.90;;;;;;5058494;28;20187;-62
2021/05/12 04:48:52;;;;;;;16.17;10.33;;;8.00;99.90;;;;;;5056377;28;20251;-62
2021/05/12 04:51:21;;;;;;;18.50;9.70;;;8.00;99.90;;;;;;5059428;28;20188;-62
2021/05/12 04:53:49;;;;;;;19.83;8.93;;;8.00;99.90;;;;;;5059230;28;20227;-61
2021/05/12 04:56:17;;;;;;;19.27;10.60;;;8.00;99.90;;;;;;5058614;28;20226;-62
2021/05/12 04:58:45;;;;;;;16.93;9.93;;;8.00;99.90;;;;;;5054878;28;21470;-61
2021/05/12 05:01:12;;;;;;;16.97;9.50;;;8.00;99.90;;;;;;5056355;28;20288;-64
2021/05/12 05:03:42;;;;;;;16.10;9.20;;;8.00;99.90;;;;;;5057113;28;20197;-62
2021/05/12 05:06:10;;;;;;;13.73;9.07;;;8.00;99.90;;;;;;5055935;28;21429;-64
2021/05/12 05:08:41;;;;;;;15.00;9.70;;;8.10;99.90;;;;;;5055913;28;20212;-61
2021/05/12 05:11:14;;;;;;;19.70;10.60;;;8.20;99.90;;;;;;5056158;28;20597;-64
2021/05/12 05:13:41;;;;;;;17.17;11.27;;;8.30;99.90;;;;;;5057027;28;20208;-61
2021/05/12 05:16:09;;;;;;;19.63;10.90;;;8.50;99.90;;;;;;5057788;28;20651;-62
2021/05/12 05:18:38;;;;;;;15.63;10.90;;;8.60;99.90;;;;;;5059928;28;20196;-61
2021/05/12 05:21:07;;;;;;;21.37;10.70;;;8.70;99.90;;;;;;5065757;28;20227;-63
2021/05/12 05:23:36;;;;;;;17.63;10.20;;;8.80;99.90;;;;;;5062208;28;20191;-63
2021/05/12 05:26:04;;;;;;;13.87;9.37;;;8.90;99.90;;;;;;5063051;28;20546;-63
2021/05/12 05:28:32;;;;;;;16.53;10.00;;;9.00;99.90;;;;;;5065074;28;20711;-64
2021/05/12 05:30:59;;;;;;;15.50;9.57;;;9.10;99.90;;;;;;5060876;28;20216;-62
2021/05/12 05:33:28;;;;;;;15.70;8.73;;;9.30;99.90;;;;;;5065507;28;20250;-63
2021/05/12 05:35:55;;;;;;;11.57;8.10;;;9.40;99.90;;;;;;5061370;28;20242;-63
2021/05/12 05:38:24;;;;;;;13.30;8.70;;;9.60;99.90;;;;;;5061581;28;20226;-63
2021/05/12 05:40:52;;;;;;;12.70;7.90;;;9.70;99.90;;;;;;5061455;28;20188;-61
2021/05/12 05:43:20;;;;;;;12.53;8.10;;;9.90;99.90;;;;;;5065459;28;20193;-64
2021/05/12 05:45:48;;;;;;;10.80;7.70;;;9.90;99.90;;;;;;5062606;28;20238;-64
2021/05/12 05:48:16;;;;;;;14.67;7.33;;;10.00;99.90;;;;;;5058200;28;20285;-63
2021/05/12 05:50:43;;;;;;;14.97;7.87;;;10.10;99.90;;;;;;5063798;28;20220;-63
2021/05/12 05:53:11;;;;;;;8.93;7.17;;;10.20;99.90;;;;;;5063343;28;20277;-64
2021/05/12 05:55:40;;;;;;;15.47;7.73;;;10.30;99.90;;;;;;5060851;28;20282;-63
2021/05/12 05:58:08;;;;;;;10.10;6.70;;;10.30;99.90;;;;;;5064634;28;20190;-63
2021/05/12 06:00:35;;;;;;;9.33;6.53;;;10.40;99.90;;;;;;5060105;28;20750;-63
2021/05/12 06:03:04;;;;;;;12.20;6.70;;;10.70;99.90;;;;;;5066339;28;20705;-63
2021/05/12 06:05:32;;;;;;;10.17;5.97;;;10.80;99.90;;;;;;5066966;28;20199;-63
2021/05/12 06:07:59;;;;;;;14.97;6.63;;;10.90;99.90;;;;;;5066416;28;20641;-63
2021/05/12 06:10:27;;;;;;;11.00;5.00;;;11.00;99.90;;;;;;5054345;28;20200;-63
2021/05/12 06:12:56;;;;;;;6.23;5.43;;;11.10;99.90;;;;;;5068266;28;20261;-63
2021/05/12 06:15:24;;;;;;;6.83;5.17;;;11.10;99.90;;;;;;5065316;28;20250;-63
2021/05/12 06:17:52;;;;;;;5.83;4.87;;;11.30;99.90;;;;;;5068267;28;20190;-64
2021/05/12 06:20:20;;;;;;;5.13;4.63;;;11.40;99.90;;;;;;5067273;28;20203;-63
2021/05/12 06:22:48;;;;;;;8.70;4.43;;;11.50;99.90;;;;;;5070066;28;20261;-63
2021/05/12 06:25:16;;;;;;;8.47;4.20;;;11.70;99.90;;;;;;5071821;28;20200;-63
2021/05/12 06:27:44;;;;;;;5.13;3.93;;;11.80;99.90;;;;;;5069826;28;20598;-63
2021/05/12 06:30:13;;;;;;;6.17;4.13;;;11.90;99.90;;;;;;5070261;28;20196;-64
2021/05/12 06:32:41;;;;;;;5.13;4.20;;;12.00;99.90;;;;;;5066613;28;20196;-64
2021/05/12 06:35:10;;;;;;;10.83;4.33;;;12.10;99.90;;;;;;5063205;28;20208;-63
2021/05/12 06:37:38;;;;;;;5.43;3.73;;;12.40;99.90;;;;;;5069489;28;20244;-63
2021/05/12 06:40:07;;;;;;;6.13;3.63;;;12.50;99.90;;;;;;5066864;28;20737;-64
2021/05/12 06:42:35;;;;;;;11.13;3.90;;;12.70;99.90;;;;;;5070806;28;20196;-64
2021/05/12 06:45:04;;;;;;;8.67;3.00;;;12.80;99.90;;;;;;5062011;28;20581;-64
2021/05/12 06:47:33;;;;;;;10.80;3.80;;;12.90;99.90;;;;;;5069773;28;20689;-64
2021/05/12 06:50:01;;;;;;;7.73;3.60;;;13.10;99.90;;;;;;5068240;28;20314;-64
2021/05/12 06:52:28;;;;;;;6.30;3.40;;;12.90;99.90;;;;;;5068506;28;20234;-64
2021/05/12 06:54:57;;;;;;;5.27;3.50;;;13.10;99.90;;;;;;5068723;28;20231;-64
2021/05/12 06:57:26;;;;;;;6.83;3.57;;;13.20;99.90;;;;;;5068707;28;20651;-63
2021/05/12 06:59:54;;;;;;;6.00;3.17;;;13.40;99.90;;;;;;5065874;28;20192;-62
2021/05/12 07:02:42;;;;;;;8.00;2.90;;;13.40;99.90;;;;;;5065611;28;20198;-64
2021/05/12 07:05:14;;;;;;;7.17;3.00;;;13.80;99.90;;;;;;5070402;28;20234;-64
2021/05/12 07:07:42;;;;;;;11.73;3.10;;;13.70;99.90;;;;;;5069786;28;20242;-64
2021/05/12 07:10:11;;;;;;;9.17;3.27;;;13.60;99.90;;;;;;5068827;28;20280;-62
2021/05/12 07:12:40;;;;;;;10.57;3.03;;;13.80;99.90;;;;;;5069825;28;20220;-62
2021/05/12 07:15:10;;;;;;;10.37;2.83;;;14.30;99.90;;;;;;5066364;28;20192;-62
2021/05/12 07:17:39;;;;;;;6.37;2.70;;;15.00;99.90;;;;;;5068884;28;20257;-62
2021/05/12 07:20:10;;;;;;;9.70;3.03;;;14.80;99.90;;;;;;5061389;28;20203;-62
2021/05/12 07:22:38;;;;;;;5.93;2.63;;;14.80;99.90;;;;;;5064474;28;20261;-63
2021/05/12 07:25:07;;;;;;;6.97;2.90;;;14.70;99.90;;;;;;5059846;28;20181;-63
2021/05/12 07:27:35;;;;;;;11.57;2.70;;;14.70;99.90;;;;;;5064438;28;20223;-63
2021/05/12 07:30:04;;;;;;;5.53;2.73;;;14.80;99.90;;;;;;5068505;28;20247;-63
2021/05/12 07:32:32;;;;;;;5.23;2.60;;;15.40;99.90;;;;;;5063975;28;20782;-63
2021/05/12 07:35:00;;;;;;;8.50;2.70;;;15.60;99.90;;;;;;5062075;28;20314;-63
2021/05/12 07:37:29;;;;;;;4.97;2.40;;;15.70;99.90;;;;;;5063992;28;20220;-63
2021/05/12 07:39:59;;;;;;;6.73;2.33;;;15.70;99.90;;;;;;5062951;28;21019;-63
2021/05/12 07:42:27;;;;;;;7.70;3.00;;;15.80;99.90;;;;;;5069458;28;20199;-63
2021/05/12 07:44:55;;;;;;;7.87;2.80;;;15.90;99.90;;;;;;5064797;28;20279;-63
2021/05/12 07:47:24;;;;;;;7.83;2.83;;;16.00;99.90;;;;;;5066598;28;20922;-63
2021/05/12 07:49:52;;;;;;;7.80;2.57;;;16.10;99.90;;;;;;5067309;28;20847;-63
2021/05/12 07:52:20;;;;;;;7.83;2.67;;;16.30;99.90;;;;;;5067003;28;20947;-63
2021/05/12 07:54:48;;;;;;;9.20;2.87;;;16.50;99.90;;;;;;5067620;28;20560;-63
2021/05/12 07:57:17;;;;;;;7.60;2.80;;;16.70;99.90;;;;;;5060857;28;20227;-63
2021/05/12 07:59:45;;;;;;;7.30;2.63;;;17.10;99.90;;;;;;5067188;28;20184;-63
2021/05/12 08:02:15;;;;;;;7.40;3.00;;;16.90;99.90;;;;;;5055103;28;20707;-62
2021/05/12 08:04:43;;;;;;;10.17;3.20;;;17.00;99.90;;;;;;5066605;28;20196;-63
2021/05/12 08:07:11;;;;;;;6.93;3.10;;;16.70;99.90;;;;;;5068105;28;20225;-63
2021/05/12 08:09:39;;;;;;;7.00;3.50;;;17.20;99.90;;;;;;5066799;28;20267;-63
2021/05/12 08:12:08;;;;;;;8.30;2.87;;;18.10;99.90;;;;;;5067798;28;20200;-63
2021/05/12 08:14:39;;;;;;;5.03;3.17;;;19.10;99.90;;;;;;5068273;28;20207;-63
2021/05/12 08:17:07;;;;;;;6.27;2.73;;;18.90;99.90;;;;;;5066786;28;20277;-63
2021/05/12 08:19:35;;;;;;;8.13;2.67;;;19.50;99.90;;;;;;5062911;28;20192;-64
2021/05/12 08:22:04;;;;;;;6.00;2.70;;;19.70;99.90;;;;;;5067048;28;20610;-63
2021/05/12 08:24:32;;;;;;;9.90;3.00;;;20.30;99.90;;;;;;5066993;28;20194;-64
2021/05/12 08:27:02;;;;;;;6.43;2.70;;;20.80;99.90;;;;;;5069299;28;20673;-64
2021/05/12 08:29:31;;;;;;;10.63;3.00;;;20.40;99.90;;;;;;5047752;28;20200;-63
2021/05/12 08:32:00;;;;;;;8.17;2.83;;;20.00;99.90;;;;;;5062441;28;20224;-63
2021/05/12 08:34:28;;;;;;;7.33;2.70;;;20.10;99.90;;;;;;5062508;28;20196;-63
2021/05/12 08:36:56;;;;;;;9.13;2.80;;;20.70;99.90;;;;;;5067368;28;20210;-64
2021/05/12 08:39:26;;;;;;;10.43;2.93;;;20.00;99.90;;;;;;5063598;28;20622;-64
2021/05/12 08:41:53;;;;;;;9.97;3.20;;;19.50;99.90;;;;;;5068120;28;20224;-63
2021/05/12 08:44:23;;;;;;;7.50;2.37;;;19.60;99.90;;;;;;5064000;28;20197;-63
2021/05/12 08:46:52;;;;;;;8.00;2.80;;;19.40;99.90;;;;;;5067092;28;20194;-63
2021/05/12 08:49:22;;;;;;;6.67;2.40;;;19.50;99.90;;;;;;5060609;28;20572;-63
2021/05/12 08:51:51;;;;;;;6.03;2.30;;;20.10;99.90;;;;;;5067020;28;20222;-63
2021/05/12 08:54:19;;;;;;;7.20;2.87;;;20.50;99.90;;;;;;5058876;28;20228;-63
2021/05/12 08:56:47;;;;;;;8.67;2.80;;;20.70;99.90;;;;;;5057142;28;20207;-64
2021/05/12 08:59:16;;;;;;;7.50;2.73;;;21.50;99.90;;;;;;5060178;28;20192;-64
2021/05/12 09:01:45;;;;;;;7.87;2.73;;;22.20;99.90;;;;;;5057884;28;20295;-64
2021/05/12 09:04:14;;;;;;;7.33;2.30;;;22.20;99.90;;;;;;5063797;28;20187;-64
2021/05/12 09:06:42;;;;;;;6.67;2.40;;;21.60;99.90;;;;;;5062537;28;20208;-63
2021/05/12 09:09:10;;;;;;;7.03;2.63;;;20.70;99.90;;;;;;5055972;28;20296;-63
2021/05/12 09:11:37;;;;;;;6.57;2.40;;;20.30;99.90;;;;;;5058959;28;20270;-63
2021/05/12 09:14:25;;;;;;;5.57;2.30;;;19.60;99.90;;;;;;5062357;28;20683;-63
2021/05/12 09:16:53;;;;;;;6.63;2.73;;;18.50;99.90;;;;;;5061830;28;20201;-63
2021/05/12 09:19:27;;;;;;;7.83;2.50;;;18.20;99.90;;;;;;5061737;28;20187;-63
2021/05/12 09:21:57;;;;;;;9.13;2.63;;;17.80;99.90;;;;;;5061020;28;20664;-63
2021/05/12 09:24:31;;;;;;;6.43;2.57;;;17.50;99.90;;;;;;5058616;28;20216;-65
2021/05/12 09:27:00;;;;;;;10.37;2.33;;;17.40;99.90;;;;;;5060623;28;20210;-65
2021/05/12 09:29:31;;;;;;;7.73;2.70;;;17.30;99.90;;;;;;5061654;28;20250;-65
2021/05/12 09:32:04;;;;;;;8.17;2.50;;;17.30;99.90;;;;;;5054672;28;20291;-63
2021/05/12 09:34:55;;;;;;;9.00;2.20;;;17.40;99.90;;;;;;5059391;28;20249;-63
2021/05/12 09:37:29;;;;;;;11.43;2.90;;;17.50;99.90;;;;;;5060774;28;20216;-63
2021/05/12 09:39:58;;;;;;;8.10;2.60;;;17.30;99.90;;;;;;5058916;28;20188;-63
2021/05/12 09:42:27;;;;;;;7.23;2.50;;;17.40;99.90;;;;;;5060717;28;20216;-63
2021/05/12 09:45:15;;;;;;;7.70;2.53;;;17.40;99.90;;;;;;5061675;28;20724;-63
2021/05/12 09:47:45;;;;;;;8.23;2.33;;;17.20;99.90;;;;;;5059769;28;20639;-64
2021/05/12 09:50:17;;;;;;;8.73;3.13;;;16.90;99.90;;;;;;5056875;28;20257;-63
2021/05/12 09:52:45;;;;;;;7.40;2.37;;;17.10;99.90;;;;;;5057465;28;20569;-65
2021/05/12 09:55:14;;;;;;;9.17;2.60;;;17.20;99.90;;;;;;5057525;28;20199;-63
2021/05/12 09:58:02;;;;;;;4.53;2.20;;;17.70;99.90;;;;;;5057498;28;20185;-64
2021/05/12 10:00:31;;;;;;;10.17;2.43;;;19.40;99.90;;;;;;5060397;28;20607;-64
2021/05/12 10:03:00;;;;;;;9.83;2.33;;;20.60;99.90;;;;;;5059142;28;20633;-64
2021/05/12 10:05:49;;;;;;;7.03;2.23;;;21.50;99.90;;;;;;5055790;28;20219;-64
2021/05/12 10:08:22;;;;;;;4.90;2.60;;;22.20;99.90;;;;;;5046996;28;20563;-64
2021/05/12 10:10:55;;;;;;;6.83;2.30;;;22.30;99.90;;;;;;5060068;28;20270;-64
2021/05/12 10:13:23;;;;;;;4.23;1.97;;;22.40;99.90;;;;;;5063989;28;20189;-64
2021/05/12 10:15:51;;;;;;;2.83;2.03;;;22.10;99.90;;;;;;5061723;28;20618;-64
2021/05/12 10:18:19;;;;;;;6.03;2.43;;;21.80;99.90;;;;;;5065115;28;20246;-64
2021/05/12 10:20:49;;;;;;;6.10;1.90;;;22.20;99.90;;;;;;5064418;28;20603;-64
2021/05/12 10:23:17;;;;;;;7.30;2.37;;;22.30;99.90;;;;;;5067312;28;20196;-63
2021/05/12 10:25:45;;;;;;;6.83;2.20;;;21.20;99.90;;;;;;5063085;28;20221;-64
2021/05/12 10:28:13;;;;;;;6.33;2.20;;;19.90;99.90;;;;;;5066856;28;20247;-64
2021/05/12 10:30:41;;;;;;;7.00;2.10;;;19.40;99.90;;;;;;5059472;28;20327;-63
2021/05/12 10:33:12;;;;;;;4.20;2.00;;;19.60;99.90;;;;;;5064319;28;20747;-63
2021/05/12 10:35:42;;;;;;;6.90;2.03;;;19.90;99.90;;;;;;5061453;28;20240;-63
2021/05/12 10:38:30;;;;;;;3.97;2.00;;;19.60;99.90;;;;;;5064293;28;20734;-63
2021/05/12 10:40:58;;;;;;;7.87;2.10;;;19.10;99.90;;;;;;5059279;28;20192;-63
2021/05/12 10:43:37;;;;;;;5.80;2.20;;;19.60;99.90;;;;;;5063617;28;20188;-63
2021/05/12 10:46:12;;;;;;;7.10;1.77;;;20.50;99.90;;;;;;5066044;28;20196;-63
2021/05/12 10:48:44;;;;;;;8.33;2.27;;;20.50;99.90;;;;;;5062271;28;20277;-63
2021/05/12 10:51:30;;;;;;;7.10;2.00;;;20.70;99.90;;;;;;5065720;28;20216;-63
2021/05/12 10:54:06;;;;;;;4.57;2.00;;;20.10;99.90;;;;;;5067343;28;20609;-63
2021/05/12 10:56:35;;;;;;;4.67;2.00;;;19.30;99.90;;;;;;5072357;28;20204;-63
2021/05/12 10:59:05;;;;;;;8.67;2.50;;;18.40;99.90;;;;;;5064332;28;20202;-63
2021/05/12 11:01:35;;;;;;;8.57;2.40;;;17.80;99.90;;;;;;5067819;28;20743;-63
2021/05/12 11:04:08;;;;;;;5.83;2.40;;;17.50;99.90;;;;;;5064075;28;20229;-65
2021/05/12 11:07:13;;;;;;;9.40;2.73;;;17.10;99.90;;;;;;5067426;28;20594;-65
2021/05/12 11:09:46;;;;;;;6.53;2.23;;;16.90;99.90;;;;;;5065362;28;20215;-63
2021/05/12 11:12:23;;;;;;;4.70;1.97;;;16.80;99.90;;;;;;5056367;28;20235;-65
2021/05/12 11:14:58;;;;;;;9.73;2.60;;;16.70;99.90;;;;;;5062337;28;20216;-65
2021/05/12 11:17:49;;;;;;;5.50;2.00;;;16.60;99.90;;;;;;5058455;28;20200;-65
2021/05/12 11:20:24;;;;;;;4.87;2.53;;;16.40;99.90;;;;;;5059231;28;20281;-65
2021/05/12 11:22:56;;;;;;;7.13;2.40;;;16.10;99.90;;;;;;5060835;28;20194;-65
2021/05/12 11:31:30;;;;;;;5.50;2.30;;;15.90;99.90;;;;;;5064931;28;20920;-65
2021/05/12 11:33:58;;;;;;;9.33;2.67;;;15.80;99.90;;;;;;5060648;28;20185;-64
2021/05/12 11:36:34;;;;;;;5.17;2.27;;;16.30;99.90;;;;;;5057471;28;20185;-65
2021/05/12 11:39:02;;;;;;;6.00;2.20;;;16.90;99.90;;;;;;5061591;28;20305;-64
2021/05/12 11:41:31;;;;;;;10.97;2.07;;;17.00;99.90;;;;;;5065636;28;20188;-65
2021/05/12 11:44:00;;;;;;;5.80;2.20;;;17.00;99.90;;;;;;5062584;28;20282;-65
2021/05/12 11:46:30;;;;;;;6.83;2.37;;;17.00;99.90;;;;;;5070365;28;20198;-65
2021/05/12 11:49:02;;;;;;;3.47;1.90;;;16.90;99.90;;;;;;5067189;28;20194;-64
2021/05/12 11:51:33;;;;;;;5.50;2.30;;;16.80;99.90;;;;;;5069892;28;20208;-65
2021/05/12 11:54:03;;;;;;;7.10;2.07;;;16.80;99.90;;;;;;5069593;28;20223;-65
2021/05/12 11:56:32;;;;;;;5.17;1.97;;;16.80;99.90;;;;;;5067843;28;20246;-65
2021/05/12 11:59:01;;;;;;;7.83;2.50;;;16.90;99.90;;;;;;5068815;28;20226;-65
2021/05/12 12:01:33;;;;;;;4.30;1.93;;;16.90;99.90;;;;;;5065731;28;20188;-65
2021/05/12 12:04:09;;;;;;;5.47;1.87;;;16.70;99.90;;;;;;5068869;28;20195;-64
2021/05/12 12:06:41;;;;;;;7.17;2.40;;;16.50;99.90;;;;;;5070148;28;20185;-65
2021/05/12 12:09:10;;;;;;;6.40;2.07;;;16.40;99.90;;;;;;5066992;28;20209;-65
2021/05/12 12:11:39;;;;;;;7.40;2.30;;;16.30;99.90;;;;;;5070304;28;20290;-65
2021/05/12 12:14:08;;;;;;;6.00;2.37;;;16.50;99.90;;;;;;5069536;28;20250;-65
2021/05/12 12:16:38;;;;;;;6.13;2.30;;;16.70;99.90;;;;;;5069639;28;20283;-64
2021/05/12 12:19:13;;;;;;;3.70;1.67;;;17.00;99.90;;;;;;5065196;28;20192;-65
2021/05/12 12:21:42;;;;;;;4.03;1.80;;;17.20;99.90;;;;;;5067825;28;20238;-65
2021/05/12 12:24:13;;;;;;;4.20;1.67;;;17.30;99.90;;;;;;5068982;28;20204;-65
2021/05/12 12:26:46;;;;;;;6.33;1.93;;;17.60;99.90;;;;;;5056505;28;20200;-65
2021/05/12 12:29:19;;;;;;;5.03;2.10;;;18.00;99.90;;;;;;5065392;28;20196;-65
2021/05/12 12:31:48;;;;;;;6.10;2.20;;;18.30;99.90;;;;;;5063973;28;20212;-65
2021/05/12 12:34:20;;;;;;;6.83;2.40;;;18.70;99.90;;;;;;5066010;28;20196;-65
2021/05/12 12:36:54;;;;;;;4.00;2.10;;;18.50;99.90;;;;;;5066588;28;20198;-65
2021/05/12 12:39:40;;;;;;;5.10;2.07;;;18.60;99.90;;;;;;5064906;28;20680;-65
2021/05/12 12:42:10;;;;;;;6.60;2.00;;;18.30;99.90;;;;;;5069116;28;20188;-65
2021/05/12 12:44:40;;;;;;;6.53;2.50;;;18.20;99.90;;;;;;5068542;28;20200;-65
2021/05/12 12:47:14;;;;;;;6.73;2.23;;;17.70;99.90;;;;;;5068602;28;20220;-65
2021/05/12 12:49:47;;;;;;;4.93;2.00;;;17.50;99.90;;;;;;5066327;28;20278;-65
2021/05/12 12:52:17;;;;;;;4.33;2.17;;;17.70;99.90;;;;;;5068658;28;20200;-65
2021/05/12 12:54:50;;;;;;;4.63;2.40;;;17.80;99.90;;;;;;5069202;28;20249;-65
2021/05/12 12:57:21;;;;;;;5.90;2.30;;;17.80;99.90;;;;;;5067975;28;20869;-65
2021/05/12 13:00:12;;;;;;;8.20;2.60;;;17.50;99.90;;;;;;5066107;28;20192;-65
2021/05/12 13:03:03;;;;;;;5.27;2.27;;;17.30;99.90;;;;;;5067753;28;20736;-65